sensor_id;sensor_type;location;lat;lon;timestamp;P1;durP1;ratioP1;P2;durP2;ratioP2
34920;SDS011;21128;50.016;20.002;2024-02-16T00:01:41;61.70;;;37.40;;
34920;SDS011;21128;50.016;20.002;2024-02-16T00:04:08;69.70;;;37.90;;
34920;SDS011;21128;50.016;20.002;2024-02-16T00:06:35;67.40;;;38.30;;
34920;SDS011;21128;50.016;20.002;2024-02-16T00:09:02;61.50;;;36.80;;
34920;SDS011;21128;50.016;20.002;2024-02-16T00:11:29;68.00;;;40.10;;
34920;SDS011;21128;50.016;20.002;2024-02-16T00:13:55;70.60;;;40.70;;
34920;SDS011;21128;50.016;20.002;2024-02-16T00:16:22;69.20;;;39.50;;
34920;SDS011;21128;50.016;20.002;2024-02-16T00:18:49;70.10;;;39.40;;
34920;SDS011;21128;50.016;20.002;2024-02-16T00:21:16;76.80;;;41.10;;
34920;SDS011;21128;50.016;20.002;2024-02-16T00:23:43;71.40;;;41.40;;
34920;SDS011;21128;50.016;20.002;2024-02-16T00:26:10;67.60;;;38.50;;
34920;SDS011;21128;50.016;20.002;2024-02-16T00:28:37;66.70;;;39.10;;
34920;SDS011;21128;50.016;20.002;2024-02-16T00:31:04;65.80;;;37.30;;
34920;SDS011;21128;50.016;20.002;2024-02-16T00:33:32;66.20;;;38.50;;
34920;SDS011;21128;50.016;20.002;2024-02-16T00:35:59;67.50;;;38.40;;
34920;SDS011;21128;50.016;20.002;2024-02-16T00:38:26;70.00;;;39.30;;
34920;SDS011;21128;50.016;20.002;2024-02-16T00:40:53;73.80;;;40.80;;
34920;SDS011;21128;50.016;20.002;2024-02-16T00:43:19;69.20;;;40.00;;
34920;SDS011;21128;50.016;20.002;2024-02-16T00:45:46;70.70;;;39.10;;
34920;SDS011;21128;50.016;20.002;2024-02-16T00:48:14;68.40;;;39.10;;
34920;SDS011;21128;50.016;20.002;2024-02-16T00:50:41;63.40;;;36.20;;
34920;SDS011;21128;50.016;20.002;2024-02-16T00:53:09;67.20;;;38.10;;
34920;SDS011;21128;50.016;20.002;2024-02-16T00:55:35;68.20;;;40.90;;
34920;SDS011;21128;50.016;20.002;2024-02-16T00:58:03;64.80;;;39.40;;
34920;SDS011;21128;50.016;20.002;2024-02-16T01:00:30;62.50;;;37.50;;
34920;SDS011;21128;50.016;20.002;2024-02-16T01:02:57;65.60;;;37.80;;
34920;SDS011;21128;50.016;20.002;2024-02-16T01:05:25;77.70;;;41.00;;
34920;SDS011;21128;50.016;20.002;2024-02-16T01:07:51;71.60;;;41.40;;
34920;SDS011;21128;50.016;20.002;2024-02-16T01:10:18;67.80;;;39.80;;
34920;SDS011;21128;50.016;20.002;2024-02-16T01:12:45;72.30;;;41.30;;
34920;SDS011;21128;50.016;20.002;2024-02-16T01:15:12;69.70;;;41.50;;
34920;SDS011;21128;50.016;20.002;2024-02-16T01:17:39;72.00;;;42.60;;
34920;SDS011;21128;50.016;20.002;2024-02-16T01:20:06;75.00;;;44.20;;
34920;SDS011;21128;50.016;20.002;2024-02-16T01:22:36;89.00;;;48.40;;
34920;SDS011;21128;50.016;20.002;2024-02-16T01:25:03;80.00;;;46.90;;
34920;SDS011;21128;50.016;20.002;2024-02-16T01:27:30;84.10;;;46.00;;
34920;SDS011;21128;50.016;20.002;2024-02-16T01:29:58;77.60;;;45.90;;
34920;SDS011;21128;50.016;20.002;2024-02-16T01:32:25;77.50;;;43.70;;
34920;SDS011;21128;50.016;20.002;2024-02-16T01:34:52;80.20;;;44.40;;
34920;SDS011;21128;50.016;20.002;2024-02-16T01:37:19;76.40;;;47.60;;
34920;SDS011;21128;50.016;20.002;2024-02-16T01:39:45;83.40;;;46.30;;
34920;SDS011;21128;50.016;20.002;2024-02-16T01:42:12;81.40;;;49.40;;
34920;SDS011;21128;50.016;20.002;2024-02-16T01:44:39;85.30;;;46.60;;
34920;SDS011;21128;50.016;20.002;2024-02-16T01:47:06;87.60;;;50.10;;
34920;SDS011;21128;50.016;20.002;2024-02-16T01:49:33;81.40;;;46.50;;
34920;SDS011;21128;50.016;20.002;2024-02-16T01:52:00;81.90;;;46.10;;
34920;SDS011;21128;50.016;20.002;2024-02-16T01:54:27;84.80;;;49.50;;
34920;SDS011;21128;50.016;20.002;2024-02-16T01:56:54;78.80;;;47.00;;
34920;SDS011;21128;50.016;20.002;2024-02-16T01:59:22;93.10;;;50.30;;
34920;SDS011;21128;50.016;20.002;2024-02-16T02:01:50;85.80;;;48.70;;
34920;SDS011;21128;50.016;20.002;2024-02-16T02:04:17;100.10;;;51.70;;
34920;SDS011;21128;50.016;20.002;2024-02-16T02:06:46;93.30;;;51.50;;
34920;SDS011;21128;50.016;20.002;2024-02-16T02:09:13;97.90;;;51.60;;
34920;SDS011;21128;50.016;20.002;2024-02-16T02:11:40;89.00;;;51.80;;
34920;SDS011;21128;50.016;20.002;2024-02-16T02:14:06;92.90;;;52.90;;
34920;SDS011;21128;50.016;20.002;2024-02-16T02:16:33;94.10;;;52.30;;
34920;SDS011;21128;50.016;20.002;2024-02-16T02:19:00;90.70;;;51.00;;
34920;SDS011;21128;50.016;20.002;2024-02-16T02:21:27;87.30;;;51.40;;
34920;SDS011;21128;50.016;20.002;2024-02-16T02:23:54;83.20;;;49.30;;
34920;SDS011;21128;50.016;20.002;2024-02-16T02:26:20;85.10;;;47.00;;
34920;SDS011;21128;50.016;20.002;2024-02-16T02:28:47;83.10;;;48.10;;
34920;SDS011;21128;50.016;20.002;2024-02-16T02:31:14;89.10;;;49.50;;
34920;SDS011;21128;50.016;20.002;2024-02-16T02:33:41;87.90;;;50.30;;
34920;SDS011;21128;50.016;20.002;2024-02-16T02:36:07;90.20;;;51.40;;
34920;SDS011;21128;50.016;20.002;2024-02-16T02:38:34;93.30;;;52.00;;
34920;SDS011;21128;50.016;20.002;2024-02-16T02:41:01;89.40;;;51.70;;
34920;SDS011;21128;50.016;20.002;2024-02-16T02:43:30;88.70;;;49.40;;
34920;SDS011;21128;50.016;20.002;2024-02-16T02:45:56;96.80;;;51.30;;
34920;SDS011;21128;50.016;20.002;2024-02-16T02:48:23;85.60;;;50.30;;
34920;SDS011;21128;50.016;20.002;2024-02-16T02:50:50;80.60;;;47.70;;
34920;SDS011;21128;50.016;20.002;2024-02-16T02:53:17;88.70;;;51.00;;
34920;SDS011;21128;50.016;20.002;2024-02-16T02:55:44;86.00;;;50.20;;
34920;SDS011;21128;50.016;20.002;2024-02-16T02:58:11;95.80;;;51.50;;
34920;SDS011;21128;50.016;20.002;2024-02-16T03:00:38;97.70;;;51.50;;
34920;SDS011;21128;50.016;20.002;2024-02-16T03:03:05;83.30;;;48.90;;
34920;SDS011;21128;50.016;20.002;2024-02-16T03:05:32;88.00;;;48.80;;
34920;SDS011;21128;50.016;20.002;2024-02-16T03:07:59;89.00;;;51.10;;
34920;SDS011;21128;50.016;20.002;2024-02-16T03:10:27;88.70;;;50.70;;
34920;SDS011;21128;50.016;20.002;2024-02-16T03:13:01;90.80;;;49.90;;
34920;SDS011;21128;50.016;20.002;2024-02-16T03:15:29;91.00;;;54.10;;
34920;SDS011;21128;50.016;20.002;2024-02-16T03:17:56;91.70;;;52.20;;
34920;SDS011;21128;50.016;20.002;2024-02-16T03:20:22;96.90;;;53.80;;
34920;SDS011;21128;50.016;20.002;2024-02-16T03:22:49;96.80;;;53.50;;
34920;SDS011;21128;50.016;20.002;2024-02-16T03:25:16;94.20;;;54.30;;
34920;SDS011;21128;50.016;20.002;2024-02-16T03:27:43;105.40;;;56.40;;
34920;SDS011;21128;50.016;20.002;2024-02-16T03:30:10;93.30;;;55.90;;
34920;SDS011;21128;50.016;20.002;2024-02-16T03:32:37;92.20;;;52.20;;
34920;SDS011;21128;50.016;20.002;2024-02-16T03:35:04;100.50;;;55.70;;
34920;SDS011;21128;50.016;20.002;2024-02-16T03:37:31;95.70;;;54.50;;
34920;SDS011;21128;50.016;20.002;2024-02-16T03:39:58;98.40;;;57.40;;
34920;SDS011;21128;50.016;20.002;2024-02-16T03:42:25;99.50;;;55.80;;
34920;SDS011;21128;50.016;20.002;2024-02-16T03:44:51;98.10;;;54.00;;
34920;SDS011;21128;50.016;20.002;2024-02-16T03:47:18;96.80;;;55.80;;
34920;SDS011;21128;50.016;20.002;2024-02-16T03:49:45;95.50;;;54.40;;
34920;SDS011;21128;50.016;20.002;2024-02-16T03:52:11;90.80;;;54.20;;
34920;SDS011;21128;50.016;20.002;2024-02-16T03:54:40;91.50;;;53.30;;
34920;SDS011;21128;50.016;20.002;2024-02-16T03:57:08;98.90;;;54.50;;
34920;SDS011;21128;50.016;20.002;2024-02-16T03:59:38;86.30;;;50.40;;
34920;SDS011;21128;50.016;20.002;2024-02-16T04:02:04;95.80;;;53.10;;
34920;SDS011;21128;50.016;20.002;2024-02-16T04:04:31;94.30;;;54.40;;
34920;SDS011;21128;50.016;20.002;2024-02-16T04:06:58;87.50;;;51.00;;
34920;SDS011;21128;50.016;20.002;2024-02-16T04:09:25;90.10;;;51.30;;
34920;SDS011;21128;50.016;20.002;2024-02-16T04:11:51;95.80;;;51.40;;
34920;SDS011;21128;50.016;20.002;2024-02-16T04:14:18;81.60;;;49.80;;
34920;SDS011;21128;50.016;20.002;2024-02-16T04:16:45;86.20;;;51.90;;
34920;SDS011;21128;50.016;20.002;2024-02-16T04:19:12;90.80;;;54.60;;
34920;SDS011;21128;50.016;20.002;2024-02-16T04:21:38;98.50;;;55.20;;
34920;SDS011;21128;50.016;20.002;2024-02-16T04:24:05;86.90;;;51.30;;
34920;SDS011;21128;50.016;20.002;2024-02-16T04:26:32;86.20;;;48.30;;
34920;SDS011;21128;50.016;20.002;2024-02-16T04:28:59;82.30;;;47.30;;
34920;SDS011;21128;50.016;20.002;2024-02-16T04:31:26;78.80;;;45.40;;
34920;SDS011;21128;50.016;20.002;2024-02-16T04:33:53;81.00;;;46.20;;
34920;SDS011;21128;50.016;20.002;2024-02-16T04:36:20;77.00;;;44.40;;
34920;SDS011;21128;50.016;20.002;2024-02-16T04:38:46;87.20;;;46.00;;
34920;SDS011;21128;50.016;20.002;2024-02-16T04:41:13;81.00;;;46.10;;
34920;SDS011;21128;50.016;20.002;2024-02-16T04:43:40;79.00;;;45.80;;
34920;SDS011;21128;50.016;20.002;2024-02-16T04:46:13;82.60;;;44.80;;
34920;SDS011;21128;50.016;20.002;2024-02-16T04:48:40;91.90;;;48.60;;
34920;SDS011;21128;50.016;20.002;2024-02-16T04:51:08;93.20;;;49.70;;
34920;SDS011;21128;50.016;20.002;2024-02-16T04:53:34;89.90;;;49.80;;
34920;SDS011;21128;50.016;20.002;2024-02-16T04:56:01;92.40;;;49.30;;
34920;SDS011;21128;50.016;20.002;2024-02-16T04:58:31;85.00;;;47.70;;
34920;SDS011;21128;50.016;20.002;2024-02-16T05:00:58;78.60;;;46.40;;
34920;SDS011;21128;50.016;20.002;2024-02-16T05:03:26;88.60;;;49.20;;
34920;SDS011;21128;50.016;20.002;2024-02-16T05:05:53;88.10;;;48.60;;
34920;SDS011;21128;50.016;20.002;2024-02-16T05:08:21;93.40;;;51.30;;
34920;SDS011;21128;50.016;20.002;2024-02-16T05:10:49;95.80;;;51.50;;
34920;SDS011;21128;50.016;20.002;2024-02-16T05:13:15;90.40;;;53.30;;
34920;SDS011;21128;50.016;20.002;2024-02-16T05:15:44;98.40;;;56.90;;
34920;SDS011;21128;50.016;20.002;2024-02-16T05:18:10;100.60;;;56.90;;
34920;SDS011;21128;50.016;20.002;2024-02-16T05:20:39;92.10;;;57.40;;
34920;SDS011;21128;50.016;20.002;2024-02-16T05:23:06;97.50;;;57.10;;
34920;SDS011;21128;50.016;20.002;2024-02-16T05:25:33;102.40;;;55.80;;
34920;SDS011;21128;50.016;20.002;2024-02-16T05:28:00;92.10;;;55.40;;
34920;SDS011;21128;50.016;20.002;2024-02-16T05:30:27;96.00;;;54.50;;
34920;SDS011;21128;50.016;20.002;2024-02-16T05:32:54;96.60;;;55.50;;
34920;SDS011;21128;50.016;20.002;2024-02-16T05:35:24;92.00;;;55.60;;
34920;SDS011;21128;50.016;20.002;2024-02-16T05:37:55;90.50;;;53.50;;
34920;SDS011;21128;50.016;20.002;2024-02-16T05:40:21;92.80;;;54.50;;
34920;SDS011;21128;50.016;20.002;2024-02-16T05:42:51;93.00;;;53.20;;
34920;SDS011;21128;50.016;20.002;2024-02-16T05:45:18;89.70;;;51.70;;
34920;SDS011;21128;50.016;20.002;2024-02-16T05:47:45;92.20;;;51.70;;
34920;SDS011;21128;50.016;20.002;2024-02-16T05:50:13;96.10;;;52.40;;
34920;SDS011;21128;50.016;20.002;2024-02-16T05:52:42;87.90;;;51.00;;
34920;SDS011;21128;50.016;20.002;2024-02-16T05:55:10;89.80;;;52.10;;
34920;SDS011;21128;50.016;20.002;2024-02-16T05:57:37;87.20;;;52.80;;
34920;SDS011;21128;50.016;20.002;2024-02-16T06:00:05;84.90;;;51.30;;
34920;SDS011;21128;50.016;20.002;2024-02-16T06:02:35;92.00;;;52.90;;
34920;SDS011;21128;50.016;20.002;2024-02-16T06:05:02;85.30;;;50.90;;
34920;SDS011;21128;50.016;20.002;2024-02-16T06:07:30;88.20;;;51.90;;
34920;SDS011;21128;50.016;20.002;2024-02-16T06:09:57;93.30;;;51.20;;
34920;SDS011;21128;50.016;20.002;2024-02-16T06:12:24;83.90;;;50.40;;
34920;SDS011;21128;50.016;20.002;2024-02-16T06:14:51;82.40;;;50.80;;
34920;SDS011;21128;50.016;20.002;2024-02-16T06:17:20;79.40;;;49.10;;
34920;SDS011;21128;50.016;20.002;2024-02-16T06:19:46;88.30;;;49.90;;
34920;SDS011;21128;50.016;20.002;2024-02-16T06:22:14;81.50;;;48.20;;
34920;SDS011;21128;50.016;20.002;2024-02-16T06:24:41;86.70;;;48.80;;
34920;SDS011;21128;50.016;20.002;2024-02-16T06:27:08;89.80;;;49.10;;
34920;SDS011;21128;50.016;20.002;2024-02-16T06:29:35;80.50;;;48.40;;
34920;SDS011;21128;50.016;20.002;2024-02-16T06:32:01;89.30;;;47.90;;
34920;SDS011;21128;50.016;20.002;2024-02-16T06:34:29;84.30;;;49.40;;
34920;SDS011;21128;50.016;20.002;2024-02-16T06:36:57;82.80;;;48.20;;
34920;SDS011;21128;50.016;20.002;2024-02-16T06:39:24;83.00;;;48.20;;
34920;SDS011;21128;50.016;20.002;2024-02-16T06:41:51;78.50;;;45.50;;
34920;SDS011;21128;50.016;20.002;2024-02-16T06:44:18;77.50;;;45.00;;
34920;SDS011;21128;50.016;20.002;2024-02-16T06:46:44;77.20;;;45.70;;
34920;SDS011;21128;50.016;20.002;2024-02-16T06:49:11;80.00;;;45.20;;
34920;SDS011;21128;50.016;20.002;2024-02-16T06:51:38;83.00;;;48.20;;
34920;SDS011;21128;50.016;20.002;2024-02-16T06:54:05;86.70;;;46.50;;
34920;SDS011;21128;50.016;20.002;2024-02-16T06:56:31;76.20;;;44.40;;
34920;SDS011;21128;50.016;20.002;2024-02-16T06:58:58;76.00;;;44.20;;
34920;SDS011;21128;50.016;20.002;2024-02-16T07:01:25;73.00;;;44.20;;
34920;SDS011;21128;50.016;20.002;2024-02-16T07:03:55;71.90;;;41.30;;
34920;SDS011;21128;50.016;20.002;2024-02-16T07:06:22;69.70;;;40.10;;
34920;SDS011;21128;50.016;20.002;2024-02-16T07:08:49;68.80;;;41.30;;
34920;SDS011;21128;50.016;20.002;2024-02-16T07:11:16;73.40;;;41.70;;
34920;SDS011;21128;50.016;20.002;2024-02-16T07:13:43;66.10;;;41.80;;
34920;SDS011;21128;50.016;20.002;2024-02-16T07:16:09;73.80;;;43.60;;
34920;SDS011;21128;50.016;20.002;2024-02-16T07:18:36;70.60;;;42.20;;
34920;SDS011;21128;50.016;20.002;2024-02-16T07:21:03;70.70;;;40.20;;
34920;SDS011;21128;50.016;20.002;2024-02-16T07:23:30;66.50;;;39.50;;
34920;SDS011;21128;50.016;20.002;2024-02-16T07:25:57;63.40;;;38.60;;
34920;SDS011;21128;50.016;20.002;2024-02-16T07:28:25;62.50;;;38.10;;
34920;SDS011;21128;50.016;20.002;2024-02-16T07:30:55;60.80;;;37.40;;
34920;SDS011;21128;50.016;20.002;2024-02-16T07:33:22;63.60;;;38.20;;
34920;SDS011;21128;50.016;20.002;2024-02-16T07:35:51;60.80;;;38.10;;
34920;SDS011;21128;50.016;20.002;2024-02-16T07:38:18;66.60;;;39.10;;
34920;SDS011;21128;50.016;20.002;2024-02-16T07:40:45;60.90;;;38.50;;
34920;SDS011;21128;50.016;20.002;2024-02-16T07:43:12;58.50;;;35.00;;
34920;SDS011;21128;50.016;20.002;2024-02-16T07:45:39;60.40;;;36.00;;
34920;SDS011;21128;50.016;20.002;2024-02-16T07:48:06;57.90;;;36.30;;
34920;SDS011;21128;50.016;20.002;2024-02-16T07:50:34;60.30;;;38.00;;
34920;SDS011;21128;50.016;20.002;2024-02-16T07:53:01;63.00;;;36.90;;
34920;SDS011;21128;50.016;20.002;2024-02-16T07:55:28;57.70;;;35.40;;
34920;SDS011;21128;50.016;20.002;2024-02-16T07:57:54;60.10;;;37.40;;
34920;SDS011;21128;50.016;20.002;2024-02-16T08:00:21;60.60;;;37.00;;
34920;SDS011;21128;50.016;20.002;2024-02-16T08:02:48;55.80;;;36.10;;
34920;SDS011;21128;50.016;20.002;2024-02-16T08:05:15;59.50;;;38.40;;
34920;SDS011;21128;50.016;20.002;2024-02-16T08:07:45;56.20;;;34.70;;
34920;SDS011;21128;50.016;20.002;2024-02-16T08:10:13;56.10;;;35.00;;
34920;SDS011;21128;50.016;20.002;2024-02-16T08:12:40;66.10;;;35.00;;
34920;SDS011;21128;50.016;20.002;2024-02-16T08:15:07;58.00;;;33.70;;
34920;SDS011;21128;50.016;20.002;2024-02-16T08:17:35;57.40;;;33.80;;
34920;SDS011;21128;50.016;20.002;2024-02-16T08:20:03;54.50;;;32.20;;
34920;SDS011;21128;50.016;20.002;2024-02-16T08:22:31;52.80;;;32.70;;
34920;SDS011;21128;50.016;20.002;2024-02-16T08:24:58;55.40;;;34.10;;
34920;SDS011;21128;50.016;20.002;2024-02-16T08:27:25;55.60;;;32.10;;
34920;SDS011;21128;50.016;20.002;2024-02-16T08:29:53;59.80;;;32.80;;
34920;SDS011;21128;50.016;20.002;2024-02-16T08:32:19;57.50;;;31.50;;
34920;SDS011;21128;50.016;20.002;2024-02-16T08:34:47;56.70;;;31.30;;
34920;SDS011;21128;50.016;20.002;2024-02-16T08:37:17;53.50;;;30.70;;
34920;SDS011;21128;50.016;20.002;2024-02-16T08:39:44;58.00;;;33.00;;
34920;SDS011;21128;50.016;20.002;2024-02-16T08:42:10;54.00;;;32.20;;
34920;SDS011;21128;50.016;20.002;2024-02-16T08:44:40;50.30;;;29.80;;
34920;SDS011;21128;50.016;20.002;2024-02-16T08:47:08;55.30;;;30.40;;
34920;SDS011;21128;50.016;20.002;2024-02-16T08:49:35;45.40;;;29.30;;
34920;SDS011;21128;50.016;20.002;2024-02-16T08:52:02;50.60;;;28.40;;
34920;SDS011;21128;50.016;20.002;2024-02-16T08:54:29;52.70;;;27.40;;
34920;SDS011;21128;50.016;20.002;2024-02-16T08:56:56;49.00;;;26.50;;
34920;SDS011;21128;50.016;20.002;2024-02-16T08:59:23;47.20;;;28.60;;
34920;SDS011;21128;50.016;20.002;2024-02-16T09:01:50;48.90;;;28.90;;
34920;SDS011;21128;50.016;20.002;2024-02-16T09:04:17;57.70;;;30.10;;
34920;SDS011;21128;50.016;20.002;2024-02-16T09:06:44;56.60;;;30.60;;
34920;SDS011;21128;50.016;20.002;2024-02-16T09:09:11;54.20;;;31.40;;
34920;SDS011;21128;50.016;20.002;2024-02-16T09:11:37;49.30;;;30.90;;
34920;SDS011;21128;50.016;20.002;2024-02-16T09:14:04;49.70;;;28.70;;
34920;SDS011;21128;50.016;20.002;2024-02-16T09:16:31;51.40;;;28.90;;
34920;SDS011;21128;50.016;20.002;2024-02-16T09:18:58;48.80;;;28.50;;
34920;SDS011;21128;50.016;20.002;2024-02-16T09:21:25;51.10;;;28.40;;
34920;SDS011;21128;50.016;20.002;2024-02-16T09:23:54;43.40;;;25.70;;
34920;SDS011;21128;50.016;20.002;2024-02-16T09:26:24;49.10;;;27.70;;
34920;SDS011;21128;50.016;20.002;2024-02-16T09:28:56;44.90;;;26.70;;
34920;SDS011;21128;50.016;20.002;2024-02-16T09:31:24;47.90;;;27.30;;
34920;SDS011;21128;50.016;20.002;2024-02-16T09:33:51;45.20;;;28.20;;
34920;SDS011;21128;50.016;20.002;2024-02-16T09:36:20;47.60;;;26.10;;
34920;SDS011;21128;50.016;20.002;2024-02-16T09:38:47;50.60;;;26.20;;
34920;SDS011;21128;50.016;20.002;2024-02-16T09:41:14;47.00;;;26.90;;
34920;SDS011;21128;50.016;20.002;2024-02-16T09:43:42;41.90;;;26.40;;
34920;SDS011;21128;50.016;20.002;2024-02-16T09:46:09;49.80;;;26.50;;
34920;SDS011;21128;50.016;20.002;2024-02-16T09:48:37;41.30;;;23.20;;
34920;SDS011;21128;50.016;20.002;2024-02-16T09:51:07;42.00;;;23.00;;
34920;SDS011;21128;50.016;20.002;2024-02-16T09:53:34;36.50;;;22.50;;
34920;SDS011;21128;50.016;20.002;2024-02-16T09:56:01;36.50;;;23.00;;
34920;SDS011;21128;50.016;20.002;2024-02-16T09:58:28;38.60;;;22.50;;
34920;SDS011;21128;50.016;20.002;2024-02-16T10:00:55;45.40;;;23.00;;
34920;SDS011;21128;50.016;20.002;2024-02-16T10:03:30;40.70;;;24.00;;
34920;SDS011;21128;50.016;20.002;2024-02-16T10:06:07;43.00;;;24.00;;
34920;SDS011;21128;50.016;20.002;2024-02-16T10:08:46;34.80;;;22.80;;
34920;SDS011;21128;50.016;20.002;2024-02-16T10:11:25;35.30;;;23.40;;
34920;SDS011;21128;50.016;20.002;2024-02-16T10:14:00;40.80;;;23.30;;
34920;SDS011;21128;50.016;20.002;2024-02-16T10:16:29;41.90;;;24.90;;
34920;SDS011;21128;50.016;20.002;2024-02-16T10:19:06;51.30;;;22.60;;
34920;SDS011;21128;50.016;20.002;2024-02-16T10:21:34;35.90;;;22.90;;
34920;SDS011;21128;50.016;20.002;2024-02-16T10:26:35;38.70;;;23.10;;
34920;SDS011;21128;50.016;20.002;2024-02-16T10:29:10;38.30;;;22.40;;
34920;SDS011;21128;50.016;20.002;2024-02-16T10:31:40;40.70;;;21.90;;
34920;SDS011;21128;50.016;20.002;2024-02-16T10:34:07;39.00;;;22.20;;
34920;SDS011;21128;50.016;20.002;2024-02-16T10:36:36;36.90;;;22.20;;
34920;SDS011;21128;50.016;20.002;2024-02-16T10:39:04;32.30;;;20.60;;
34920;SDS011;21128;50.016;20.002;2024-02-16T10:41:33;38.10;;;21.20;;
34920;SDS011;21128;50.016;20.002;2024-02-16T10:44:02;36.40;;;22.00;;
34920;SDS011;21128;50.016;20.002;2024-02-16T10:46:30;38.00;;;21.60;;
34920;SDS011;21128;50.016;20.002;2024-02-16T10:48:58;51.20;;;22.50;;
34920;SDS011;21128;50.016;20.002;2024-02-16T10:51:36;45.60;;;20.70;;
34920;SDS011;21128;50.016;20.002;2024-02-16T10:54:07;41.50;;;20.30;;
34920;SDS011;21128;50.016;20.002;2024-02-16T10:56:35;45.60;;;21.30;;
34920;SDS011;21128;50.016;20.002;2024-02-16T10:59:04;34.70;;;19.80;;
34920;SDS011;21128;50.016;20.002;2024-02-16T11:01:40;33.20;;;21.30;;
34920;SDS011;21128;50.016;20.002;2024-02-16T11:04:11;44.80;;;21.80;;
34920;SDS011;21128;50.016;20.002;2024-02-16T11:06:53;38.50;;;21.00;;
34920;SDS011;21128;50.016;20.002;2024-02-16T11:11:52;35.00;;;19.60;;
34920;SDS011;21128;50.016;20.002;2024-02-16T11:14:21;35.70;;;19.20;;
34920;SDS011;21128;50.016;20.002;2024-02-16T11:16:53;34.40;;;17.90;;
34920;SDS011;21128;50.016;20.002;2024-02-16T11:19:21;32.90;;;18.20;;
34920;SDS011;21128;50.016;20.002;2024-02-16T11:21:58;31.30;;;19.10;;
34920;SDS011;21128;50.016;20.002;2024-02-16T11:24:29;29.10;;;17.60;;
34920;SDS011;21128;50.016;20.002;2024-02-16T11:27:06;36.60;;;18.30;;
34920;SDS011;21128;50.016;20.002;2024-02-16T11:29:34;34.40;;;17.70;;
34920;SDS011;21128;50.016;20.002;2024-02-16T11:32:03;32.00;;;17.60;;
34920;SDS011;21128;50.016;20.002;2024-02-16T11:34:31;34.10;;;17.40;;
34920;SDS011;21128;50.016;20.002;2024-02-16T11:36:59;38.60;;;16.20;;
34920;SDS011;21128;50.016;20.002;2024-02-16T11:39:28;30.10;;;15.20;;
34920;SDS011;21128;50.016;20.002;2024-02-16T11:42:02;24.20;;;15.40;;
34920;SDS011;21128;50.016;20.002;2024-02-16T11:44:34;28.40;;;15.40;;
34920;SDS011;21128;50.016;20.002;2024-02-16T11:47:02;30.40;;;14.90;;
34920;SDS011;21128;50.016;20.002;2024-02-16T11:49:30;25.80;;;14.10;;
34920;SDS011;21128;50.016;20.002;2024-02-16T11:51:59;23.70;;;14.20;;
34920;SDS011;21128;50.016;20.002;2024-02-16T11:54:26;24.90;;;14.50;;
34920;SDS011;21128;50.016;20.002;2024-02-16T11:56:53;27.20;;;14.50;;
34920;SDS011;21128;50.016;20.002;2024-02-16T11:59:20;24.50;;;13.60;;
34920;SDS011;21128;50.016;20.002;2024-02-16T12:01:51;28.60;;;13.60;;
34920;SDS011;21128;50.016;20.002;2024-02-16T12:04:25;27.10;;;13.20;;
34920;SDS011;21128;50.016;20.002;2024-02-16T12:07:00;19.30;;;12.60;;
34920;SDS011;21128;50.016;20.002;2024-02-16T12:09:28;23.10;;;11.90;;
34920;SDS011;21128;50.016;20.002;2024-02-16T12:11:56;23.50;;;12.60;;
34920;SDS011;21128;50.016;20.002;2024-02-16T12:14:24;23.60;;;11.80;;
34920;SDS011;21128;50.016;20.002;2024-02-16T12:16:51;21.80;;;10.90;;
34920;SDS011;21128;50.016;20.002;2024-02-16T12:19:21;19.40;;;9.80;;
34920;SDS011;21128;50.016;20.002;2024-02-16T12:21:49;18.70;;;9.70;;
34920;SDS011;21128;50.016;20.002;2024-02-16T12:24:17;13.80;;;8.80;;
34920;SDS011;21128;50.016;20.002;2024-02-16T12:26:45;14.20;;;7.80;;
34920;SDS011;21128;50.016;20.002;2024-02-16T12:29:12;10.70;;;7.10;;
34920;SDS011;21128;50.016;20.002;2024-02-16T12:31:40;17.80;;;8.30;;
34920;SDS011;21128;50.016;20.002;2024-02-16T12:34:08;27.70;;;8.70;;
34920;SDS011;21128;50.016;20.002;2024-02-16T12:36:35;19.40;;;8.50;;
34920;SDS011;21128;50.016;20.002;2024-02-16T12:39:03;15.50;;;8.50;;
34920;SDS011;21128;50.016;20.002;2024-02-16T12:41:38;13.40;;;7.80;;
34920;SDS011;21128;50.016;20.002;2024-02-16T12:44:08;15.00;;;7.70;;
34920;SDS011;21128;50.016;20.002;2024-02-16T12:46:34;15.50;;;7.30;;
34920;SDS011;21128;50.016;20.002;2024-02-16T12:49:01;19.10;;;7.40;;
34920;SDS011;21128;50.016;20.002;2024-02-16T12:51:28;16.00;;;6.70;;
34920;SDS011;21128;50.016;20.002;2024-02-16T12:53:55;11.40;;;7.10;;
34920;SDS011;21128;50.016;20.002;2024-02-16T12:56:22;18.40;;;7.60;;
34920;SDS011;21128;50.016;20.002;2024-02-16T12:58:49;17.80;;;8.50;;
34920;SDS011;21128;50.016;20.002;2024-02-16T13:01:16;21.60;;;8.80;;
34920;SDS011;21128;50.016;20.002;2024-02-16T13:03:44;21.60;;;7.80;;
34920;SDS011;21128;50.016;20.002;2024-02-16T13:06:11;17.40;;;7.60;;
34920;SDS011;21128;50.016;20.002;2024-02-16T13:08:38;15.10;;;7.40;;
34920;SDS011;21128;50.016;20.002;2024-02-16T13:11:05;11.90;;;6.80;;
34920;SDS011;21128;50.016;20.002;2024-02-16T13:13:31;20.10;;;6.80;;
34920;SDS011;21128;50.016;20.002;2024-02-16T13:15:58;13.60;;;6.40;;
34920;SDS011;21128;50.016;20.002;2024-02-16T13:18:25;15.50;;;7.90;;
34920;SDS011;21128;50.016;20.002;2024-02-16T13:20:52;14.60;;;7.90;;
34920;SDS011;21128;50.016;20.002;2024-02-16T13:23:19;12.40;;;7.10;;
34920;SDS011;21128;50.016;20.002;2024-02-16T13:25:46;13.60;;;7.60;;
34920;SDS011;21128;50.016;20.002;2024-02-16T13:28:13;16.40;;;6.50;;
34920;SDS011;21128;50.016;20.002;2024-02-16T13:30:39;17.40;;;7.30;;
34920;SDS011;21128;50.016;20.002;2024-02-16T13:33:06;13.10;;;6.30;;
34920;SDS011;21128;50.016;20.002;2024-02-16T13:35:35;10.80;;;6.40;;
34920;SDS011;21128;50.016;20.002;2024-02-16T13:38:03;13.10;;;6.50;;
34920;SDS011;21128;50.016;20.002;2024-02-16T13:40:30;9.00;;;6.00;;
34920;SDS011;21128;50.016;20.002;2024-02-16T13:43:00;14.60;;;6.50;;
34920;SDS011;21128;50.016;20.002;2024-02-16T13:45:28;12.10;;;6.30;;
34920;SDS011;21128;50.016;20.002;2024-02-16T13:48:13;14.60;;;6.90;;
34920;SDS011;21128;50.016;20.002;2024-02-16T13:50:40;12.30;;;6.30;;
34920;SDS011;21128;50.016;20.002;2024-02-16T13:53:06;9.60;;;5.60;;
34920;SDS011;21128;50.016;20.002;2024-02-16T13:55:33;8.80;;;5.30;;
34920;SDS011;21128;50.016;20.002;2024-02-16T13:58:00;10.10;;;5.50;;
34920;SDS011;21128;50.016;20.002;2024-02-16T14:00:26;11.80;;;5.90;;
34920;SDS011;21128;50.016;20.002;2024-02-16T14:02:54;13.20;;;6.30;;
34920;SDS011;21128;50.016;20.002;2024-02-16T14:05:21;8.70;;;5.10;;
34920;SDS011;21128;50.016;20.002;2024-02-16T14:07:48;17.90;;;5.90;;
34920;SDS011;21128;50.016;20.002;2024-02-16T14:10:15;8.60;;;5.50;;
34920;SDS011;21128;50.016;20.002;2024-02-16T14:12:42;9.60;;;5.50;;
34920;SDS011;21128;50.016;20.002;2024-02-16T14:15:11;17.50;;;6.70;;
34920;SDS011;21128;50.016;20.002;2024-02-16T14:17:42;11.80;;;5.60;;
34920;SDS011;21128;50.016;20.002;2024-02-16T14:20:09;10.30;;;5.70;;